Time;durP1;ratioP1;P1;durP2;ratioP2;P2;SDS_P1;SDS_P2;PMS_P1;PMS_P2;Temp;Humidity;BMP_temperature;BMP_pressure;BME280_temperature;BME280_humidity;BME280_pressure;Samples;Min_cycle;Max_cycle;Signal;HPM_P1;HPM_P2
2024/03/28 00:02:16;;;;;;;21.10;15.50;;;;;;;5.78;72.22;100048.65;106005;1255;62046;-70
2024/03/28 00:04:42;;;;;;;22.20;14.50;;;;;;;5.75;72.24;100048.08;106044;1254;66682;-71
2024/03/28 00:07:09;;;;;;;22.00;15.00;;;;;;;5.73;72.21;100046.98;106124;1253;62533;-71
2024/03/28 00:09:36;;;;;;;23.90;16.20;;;;;;;5.72;72.25;100044.98;105776;1257;63892;-72
2024/03/28 00:12:02;;;;;;;21.10;15.70;;;;;;;5.70;72.21;100044.75;106057;1257;62070;-71
2024/03/28 00:14:29;;;;;;;24.70;16.90;;;;;;;5.69;72.14;100042.38;106220;1257;62043;-71
2024/03/28 00:16:56;;;;;;;24.00;18.20;;;;;;;5.68;72.12;100043.70;106085;1256;66705;-71
2024/03/28 00:19:22;;;;;;;25.90;18.40;;;;;;;5.66;72.24;100036.25;106030;1255;62145;-69
2024/03/28 00:21:59;;;;;;;30.80;20.80;;;;;;;5.66;72.14;100030.19;106082;1251;62609;-71
2024/03/28 00:24:26;;;;;;;33.30;22.50;;;;;;;5.65;72.06;100028.99;105973;1252;62058;-70
2024/03/28 00:26:53;;;;;;;35.70;23.90;;;;;;;5.64;72.07;100027.65;105899;1252;62191;-70
2024/03/28 00:29:19;;;;;;;42.80;25.20;;;;;;;5.63;72.02;100027.74;105936;1256;61970;-69
2024/03/28 00:31:46;;;;;;;45.20;26.60;;;;;;;5.60;71.96;100029.52;106169;1251;62155;-70
2024/03/28 00:34:13;;;;;;;45.60;27.20;;;;;;;5.56;71.84;100028.20;106065;1256;62526;-70
2024/03/28 00:36:39;;;;;;;54.20;29.50;;;;;;;5.52;71.96;100031.07;105999;1251;62014;-69
2024/03/28 00:39:06;;;;;;;49.60;29.60;;;;;;;5.50;71.77;100031.91;105936;1254;62146;-70
2024/03/28 00:41:35;;;;;;;42.70;27.10;;;;;;;5.49;71.87;100035.96;106024;1254;68662;-70
2024/03/28 00:44:01;;;;;;;41.30;27.20;;;;;;;5.47;71.75;100039.08;106083;1256;62065;-70
2024/03/28 00:46:28;;;;;;;37.90;25.30;;;;;;;5.43;71.79;100041.40;105977;1257;64014;-71
2024/03/28 00:48:55;;;;;;;39.50;25.80;;;;;;;5.40;71.85;100039.67;106049;1256;62165;-70
2024/03/28 00:51:21;;;;;;;36.40;24.80;;;;;;;5.36;71.80;100039.11;106052;1257;62036;-70
2024/03/28 00:53:48;;;;;;;41.80;25.40;;;;;;;5.31;71.86;100037.48;106070;1257;66805;-70
2024/03/28 00:56:15;;;;;;;39.60;24.30;;;;;;;5.28;71.93;100035.91;105807;1260;62066;-69
2024/03/28 00:58:41;;;;;;;33.80;22.60;;;;;;;5.28;72.06;100035.61;105998;1256;64374;-70
2024/03/28 01:01:08;;;;;;;33.90;22.00;;;;;;;5.27;72.08;100029.02;106093;1256;62131;-71
2024/03/28 01:03:34;;;;;;;33.10;21.90;;;;;;;5.26;72.06;100024.16;106146;1256;62149;-70
2024/03/28 01:06:01;;;;;;;33.10;21.50;;;;;;;5.25;72.07;100020.04;105865;1251;65264;-69
2024/03/28 01:08:29;;;;;;;32.30;21.10;;;;;;;5.23;72.06;100017.95;106096;1252;62168;-69
2024/03/28 01:10:56;;;;;;;33.50;21.40;;;;;;;5.21;72.06;100014.89;106146;1256;64174;-70
2024/03/28 01:13:22;;;;;;;36.40;21.60;;;;;;;5.21;72.13;100014.02;105829;1259;62156;-70
2024/03/28 01:15:49;;;;;;;36.00;21.30;;;;;;;5.21;72.06;100015.60;106080;1251;62060;-70
2024/03/28 01:18:16;;;;;;;32.40;21.10;;;;;;;5.20;72.07;100014.96;105929;1252;66733;-71
2024/03/28 01:20:42;;;;;;;38.30;22.20;;;;;;;5.17;72.19;100010.91;105861;1256;62069;-70
2024/03/28 01:23:09;;;;;;;32.70;20.60;;;;;;;5.16;72.17;100007.35;106168;1257;63873;-70
2024/03/28 01:25:36;;;;;;;34.30;20.00;;;;;;;5.15;72.26;100007.61;105911;1254;62101;-71
2024/03/28 01:28:03;;;;;;;28.50;18.70;;;;;;;5.14;72.32;100007.33;106025;1257;61915;-72
2024/03/28 01:30:29;;;;;;;28.50;18.10;;;;;;;5.12;72.33;100002.55;106069;1252;66811;-70
2024/03/28 01:32:56;;;;;;;29.10;18.80;;;;;;;5.10;72.32;100000.04;105918;1256;62168;-70
2024/03/28 01:35:23;;;;;;;23.90;15.40;;;;;;;5.07;72.38;99999.54;106173;1252;64086;-70
2024/03/28 01:37:49;;;;;;;23.30;15.30;;;;;;;5.05;72.43;100000.02;106146;1254;62038;-70
2024/03/28 01:40:16;;;;;;;21.40;15.20;;;;;;;5.03;72.42;100004.89;106127;1256;62056;-70
2024/03/28 01:42:42;;;;;;;22.10;14.70;;;;;;;5.00;72.52;100007.84;105922;1251;66603;-69
2024/03/28 01:45:10;;;;;;;19.60;13.80;;;;;;;4.99;72.55;100007.73;105845;1257;61968;-69
2024/03/28 01:47:36;;;;;;;18.40;13.80;;;;;;;5.00;72.60;100005.23;105962;1256;63819;-70
2024/03/28 01:50:08;;;;;;;16.70;13.00;;;;;;;5.00;72.58;99999.98;106206;1257;62114;-69
2024/03/28 01:52:35;;;;;;;21.60;13.80;;;;;;;4.99;72.60;99997.23;105879;1252;62154;-71
2024/03/28 01:55:02;;;;;;;19.60;14.00;;;;;;;4.98;72.63;99999.77;105909;1255;67267;-72
2024/03/28 01:57:29;;;;;;;20.20;14.20;;;;;;;4.97;72.55;100000.71;106025;1251;62135;-70
2024/03/28 01:59:56;;;;;;;20.20;14.30;;;;;;;4.96;72.71;99999.02;105803;1266;63884;-69
2024/03/28 02:02:22;;;;;;;23.20;14.90;;;;;;;4.96;72.80;99998.48;105814;1252;62152;-71
2024/03/28 02:04:49;;;;;;;24.00;16.00;;;;;;;4.97;72.79;99995.33;105767;1255;62040;-70
2024/03/28 02:07:16;;;;;;;29.30;17.10;;;;;;;4.96;72.76;99998.13;105833;1257;65704;-70
2024/03/28 02:09:42;;;;;;;30.10;18.30;;;;;;;4.96;72.74;100000.77;105954;1255;62070;-70
2024/03/28 02:12:09;;;;;;;31.40;18.80;;;;;;;4.97;72.82;100004.20;105991;1257;63917;-69
2024/03/28 02:14:39;;;;;;;28.40;17.60;;;;;;;4.98;73.02;99997.01;106055;1251;62674;-69
2024/03/28 02:17:06;;;;;;;28.90;18.00;;;;;;;4.99;72.97;99995.31;106126;1252;62056;-70
2024/03/28 02:19:34;;;;;;;25.80;16.90;;;;;;;5.00;73.01;99995.23;105912;1255;66827;-70
2024/03/28 02:22:01;;;;;;;26.80;16.50;;;;;;;5.01;72.90;99993.95;105913;1255;66022;-69
2024/03/28 02:24:29;;;;;;;22.50;16.00;;;;;;;5.02;72.86;99994.09;105987;1255;63811;-71
2024/03/28 02:26:55;;;;;;;21.40;15.10;;;;;;;5.03;72.85;99991.42;105928;1256;62097;-70
2024/03/28 02:29:23;;;;;;;26.20;17.30;;;;;;;5.04;72.93;99987.05;105794;1257;61964;-70
2024/03/28 02:31:49;;;;;;;32.90;19.20;;;;;;;5.04;72.88;99987.00;105929;1252;67012;-72
2024/03/28 02:34:16;;;;;;;27.10;18.10;;;;;;;5.04;72.82;99987.51;105908;1251;62098;-71
2024/03/28 02:36:42;;;;;;;32.00;18.90;;;;;;;5.05;72.72;99985.73;105976;1251;63833;-71
2024/03/28 02:39:10;;;;;;;25.80;16.60;;;;;;;5.05;72.72;99979.61;105892;1253;62127;-72
2024/03/28 02:41:37;;;;;;;25.30;15.20;;;;;;;5.05;72.59;99982.22;105929;1256;62149;-71
2024/03/28 02:44:03;;;;;;;25.80;15.50;;;;;;;5.05;72.43;99984.16;105864;1252;65619;-71
2024/03/28 02:46:30;;;;;;;21.10;14.90;;;;;;;5.04;72.43;99980.52;105773;1251;62064;-71
2024/03/28 02:48:57;;;;;;;22.00;13.80;;;;;;;5.03;72.30;99977.28;105910;1260;63983;-73
2024/03/28 02:51:24;;;;;;;23.80;15.70;;;;;;;5.02;72.16;99979.95;105857;1251;62664;-71
2024/03/28 02:53:50;;;;;;;24.70;14.70;;;;;;;5.01;71.98;99982.79;105956;1251;62030;-72
2024/03/28 02:56:17;;;;;;;26.20;15.80;;;;;;;5.02;71.93;99980.32;106106;1251;66581;-71
2024/03/28 02:58:44;;;;;;;27.90;15.30;;;;;;;5.03;71.88;99977.66;105856;1255;62161;-72
2024/03/28 03:01:10;;;;;;;22.90;13.50;;;;;;;5.06;71.77;99978.67;105939;1251;62111;-73
2024/03/28 03:03:37;;;;;;;21.90;14.20;;;;;;;5.08;71.61;99981.64;106024;1258;62066;-71
2024/03/28 03:06:04;;;;;;;16.70;12.40;;;;;;;5.10;71.47;99980.84;105897;1251;62095;-71
2024/03/28 03:08:31;;;;;;;19.20;13.00;;;;;;;5.12;71.31;99980.55;105998;1256;66632;-72
2024/03/28 03:10:57;;;;;;;16.60;12.10;;;;;;;5.12;71.08;99975.15;106173;1251;62141;-71
2024/03/28 03:13:24;;;;;;;18.00;12.10;;;;;;;5.12;70.90;99970.97;105996;1256;64024;-71
2024/03/28 03:15:52;;;;;;;16.40;11.20;;;;;;;5.12;70.78;99969.05;106079;1251;61982;-70
2024/03/28 03:18:25;;;;;;;15.50;11.00;;;;;;;5.12;70.69;99967.27;106147;1252;62046;-70
2024/03/28 03:21:00;;;;;;;14.00;11.20;;;;;;;5.14;70.57;99974.80;105911;1251;65496;-69
2024/03/28 03:23:35;;;;;;;14.60;10.90;;;;;;;5.16;70.47;99982.23;105806;1254;62418;-70
2024/03/28 03:26:11;;;;;;;13.30;10.50;;;;;;;5.17;70.35;99981.98;106173;1251;64624;-70
2024/03/28 03:36:59;;;;;;;19.00;12.60;;;;;;;5.20;70.03;99982.17;105853;1251;62778;-70
2024/03/28 03:39:27;;;;;;;19.60;13.30;;;;;;;5.20;69.94;99978.98;105848;1258;63836;-72
2024/03/28 03:41:55;;;;;;;18.80;13.00;;;;;;;5.21;69.97;99980.70;105984;1251;62092;-69
2024/03/28 03:44:22;;;;;;;22.20;13.90;;;;;;;5.22;69.87;99978.91;106075;1251;62130;-69
2024/03/28 03:46:49;;;;;;;21.90;13.50;;;;;;;5.21;69.83;99975.81;106018;1253;66613;-72
2024/03/28 03:49:16;;;;;;;23.80;15.20;;;;;;;5.21;69.78;99977.23;106012;1251;62052;-70
2024/03/28 03:51:42;;;;;;;31.30;18.20;;;;;;;5.20;69.72;99973.27;105999;1251;62652;-70
2024/03/28 03:54:09;;;;;;;31.20;17.90;;;;;;;5.19;69.65;99971.71;105960;1253;62066;-70
2024/03/28 03:56:36;;;;;;;28.70;18.00;;;;;;;5.18;69.62;99971.39;106124;1251;62053;-70
2024/03/28 03:59:03;;;;;;;31.40;19.30;;;;;;;5.19;69.63;99974.17;105917;1252;66609;-70
2024/03/28 04:01:30;;;;;;;29.90;18.30;;;;;;;5.19;69.46;99975.02;106038;1255;62139;-69
2024/03/28 04:03:56;;;;;;;27.50;16.70;;;;;;;5.19;69.55;99975.02;106324;1256;62837;-71
2024/03/28 04:06:23;;;;;;;27.20;16.30;;;;;;;5.21;69.60;99967.79;106112;1257;62120;-71
2024/03/28 04:08:50;;;;;;;29.00;17.10;;;;;;;5.23;69.60;99967.69;106052;1255;62011;-70
2024/03/28 04:11:17;;;;;;;29.50;18.60;;;;;;;5.25;69.60;99963.52;106115;1254;66823;-70
2024/03/28 04:13:43;;;;;;;31.70;19.10;;;;;;;5.27;69.66;99960.07;106083;1256;62124;-69
2024/03/28 04:16:10;;;;;;;29.00;17.80;;;;;;;5.29;69.75;99959.02;106172;1251;63842;-70
2024/03/28 04:18:37;;;;;;;25.50;17.50;;;;;;;5.32;69.64;99959.41;106108;1251;61655;-70
2024/03/28 04:21:04;;;;;;;28.50;17.40;;;;;;;5.35;69.67;99961.28;105852;1251;62078;-69
2024/03/28 04:23:30;;;;;;;27.40;18.40;;;;;;;5.38;69.66;99957.56;106003;1257;66758;-70
2024/03/28 04:25:58;;;;;;;29.80;18.10;;;;;;;5.42;69.68;99953.15;106130;1254;62069;-70
2024/03/28 04:28:24;;;;;;;28.10;17.80;;;;;;;5.46;69.57;99954.65;105933;1254;62781;-70
2024/03/28 04:30:51;;;;;;;30.90;18.10;;;;;;;5.50;69.53;99951.45;106155;1254;62084;-69
2024/03/28 04:33:18;;;;;;;33.30;21.20;;;;;;;5.54;69.44;99948.20;105909;1258;61996;-69
2024/03/28 04:35:48;;;;;;;37.70;22.90;;;;;;;5.58;69.38;99946.66;105897;1254;66479;-68
2024/03/28 04:38:15;;;;;;;39.30;22.70;;;;;;;5.62;69.25;99949.02;105990;1257;61980;-69
2024/03/28 04:40:42;;;;;;;43.20;24.00;;;;;;;5.67;69.07;99948.73;106094;1255;63894;-69
2024/03/28 04:43:10;;;;;;;41.80;22.50;;;;;;;5.70;68.84;99946.25;106095;1254;62013;-70
2024/03/28 04:45:37;;;;;;;39.50;22.10;;;;;;;5.72;68.65;99944.87;106218;1251;62032;-71
2024/03/28 04:48:04;;;;;;;39.20;22.40;;;;;;;5.76;68.36;99942.36;106128;1255;66755;-69
2024/03/28 04:50:31;;;;;;;44.50;25.50;;;;;;;5.80;68.13;99936.83;106153;1255;62039;-69
2024/03/28 04:52:59;;;;;;;53.70;27.70;;;;;;;5.85;67.80;99937.21;106017;1257;63722;-70
2024/03/28 04:55:25;;;;;;;56.40;28.40;;;;;;;5.89;67.54;99937.27;105829;1254;62235;-69
2024/03/28 04:57:53;;;;;;;54.80;28.70;;;;;;;5.95;67.27;99936.89;106042;1256;62082;-70
2024/03/28 05:00:20;;;;;;;50.50;28.00;;;;;;;5.99;67.10;99931.54;106106;1251;65267;-71
2024/03/28 05:02:47;;;;;;;44.40;24.60;;;;;;;6.06;66.75;99931.67;106032;1251;62158;-69
2024/03/28 05:05:14;;;;;;;41.50;21.60;;;;;;;6.11;66.60;99928.34;105916;1257;63990;-71
2024/03/28 05:07:40;;;;;;;32.40;19.70;;;;;;;6.16;66.17;99928.50;106095;1254;62587;-72
2024/03/28 05:10:08;;;;;;;33.30;19.80;;;;;;;6.21;65.89;99924.50;106068;1256;62069;-71
2024/03/28 05:12:35;;;;;;;31.40;18.40;;;;;;;6.26;65.58;99915.75;106175;1257;66636;-73
2024/03/28 05:15:02;;;;;;;33.70;19.80;;;;;;;6.31;65.26;99912.81;105867;1256;62165;-72
2024/03/28 05:17:29;;;;;;;30.50;19.40;;;;;;;6.36;64.96;99912.30;106122;1257;64011;-71
2024/03/28 05:19:55;;;;;;;31.40;18.80;;;;;;;6.40;64.81;99910.23;106170;1251;62164;-70
2024/03/28 05:22:25;;;;;;;30.70;18.90;;;;;;;6.45;64.74;99904.80;105884;1251;62162;-69
2024/03/28 05:24:51;;;;;;;30.80;17.90;;;;;;;6.50;64.48;99902.91;106036;1257;66738;-69
2024/03/28 05:27:18;;;;;;;31.90;18.50;;;;;;;6.56;64.33;99900.02;106007;1251;67403;-70
2024/03/28 05:29:45;;;;;;;27.00;17.00;;;;;;;6.61;64.21;99905.30;105908;1254;63832;-69
2024/03/28 05:32:11;;;;;;;26.60;17.10;;;;;;;6.67;64.17;99904.16;106085;1251;62057;-69
2024/03/28 05:34:38;;;;;;;25.60;15.20;;;;;;;6.73;64.04;99898.45;106078;1251;62059;-69
2024/03/28 05:37:04;;;;;;;24.20;15.40;;;;;;;6.79;63.80;99895.20;106104;1251;65260;-70
2024/03/28 05:39:32;;;;;;;32.50;16.90;;;;;;;6.85;63.61;99889.87;106289;1251;62168;-70
2024/03/28 05:41:58;;;;;;;37.90;19.80;;;;;;;6.91;63.32;99887.20;106098;1253;62973;-70
2024/03/28 05:44:25;;;;;;;44.60;24.40;;;;;;;6.97;63.24;99889.77;105816;1251;62257;-70
2024/03/28 05:46:52;;;;;;;57.20;30.10;;;;;;;7.02;63.04;99887.81;106082;1255;62160;-70
2024/03/28 05:49:19;;;;;;;53.70;26.60;;;;;;;7.07;62.87;99889.35;105956;1257;65567;-70
2024/03/28 05:51:46;;;;;;;57.60;28.40;;;;;;;7.13;62.86;99887.50;105894;1251;62084;-70
2024/03/28 05:54:12;;;;;;;36.80;20.50;;;;;;;7.20;62.83;99891.23;106187;1251;63765;-70
2024/03/28 05:56:39;;;;;;;39.20;22.20;;;;;;;7.27;62.79;99891.23;106084;1251;62062;-70
2024/03/28 05:59:08;;;;;;;34.50;20.50;;;;;;;7.33;62.71;99886.17;106165;1257;62304;-71
2024/03/28 06:01:35;;;;;;;28.50;17.70;;;;;;;7.40;62.53;99889.73;106075;1257;66676;-69
2024/03/28 06:04:02;;;;;;;23.80;15.10;;;;;;;7.47;62.25;99888.31;106126;1251;62066;-70
2024/03/28 06:06:29;;;;;;;27.00;15.20;;;;;;;7.54;61.98;99884.67;106056;1251;63886;-70
2024/03/28 06:08:56;;;;;;;33.60;18.50;;;;;;;7.59;61.74;99878.31;105965;1256;62498;-69
2024/03/28 06:11:23;;;;;;;33.40;18.60;;;;;;;7.64;61.69;99875.13;106164;1251;62097;-70
2024/03/28 06:13:54;;;;;;;25.50;16.60;;;;;;;7.70;61.59;99874.86;106090;1255;66807;-70
2024/03/28 06:16:20;;;;;;;23.00;14.70;;;;;;;7.76;61.52;99874.40;106132;1255;62148;-71
2024/03/28 06:18:49;;;;;;;34.40;16.70;;;;;;;7.81;61.35;99870.68;106103;1251;63999;-70
2024/03/28 06:21:15;;;;;;;27.70;15.70;;;;;;;7.86;61.19;99870.27;106011;1251;62149;-70
2024/03/28 06:23:42;;;;;;;24.80;14.50;;;;;;;7.91;61.07;99864.00;106165;1253;61951;-70
2024/03/28 06:26:09;;;;;;;23.20;13.40;;;;;;;7.94;60.65;99866.16;105877;1251;66560;-70
2024/03/28 06:28:36;;;;;;;20.90;11.40;;;;;;;7.99;60.41;99861.94;106035;1251;62101;-72
2024/03/28 06:31:04;;;;;;;16.20;8.30;;;;;;;8.04;60.24;99859.29;105946;1254;63860;-70
2024/03/28 06:33:30;;;;;;;16.90;8.30;;;;;;;8.09;59.90;99861.04;106078;1251;62144;-70
2024/03/28 06:35:57;;;;;;;12.40;7.00;;;;;;;8.14;59.88;99854.30;105929;1251;62330;-70
2024/03/28 06:38:24;;;;;;;14.00;6.70;;;;;;;8.20;59.74;99851.91;105916;1251;68596;-72
2024/03/28 06:41:00;;;;;;;12.90;6.50;;;;;;;8.24;59.56;99854.78;106119;1251;62387;-72
2024/03/28 06:43:27;;;;;;;12.10;7.80;;;;;;;8.30;59.25;99847.96;106109;1257;65912;-71
2024/03/28 06:45:54;;;;;;;13.80;7.40;;;;;;;8.38;58.98;99846.66;106044;1255;62257;-70
2024/03/28 06:48:21;;;;;;;14.80;7.00;;;;;;;8.43;59.01;99844.52;106077;1251;62062;-72
2024/03/28 06:50:47;;;;;;;13.20;6.60;;;;;;;8.48;58.75;99843.05;106086;1252;66695;-69
2024/03/28 06:53:14;;;;;;;11.70;6.80;;;;;;;8.54;58.77;99840.14;106112;1255;62042;-71
2024/03/28 06:55:41;;;;;;;10.10;6.60;;;;;;;8.59;58.74;99834.64;106023;1256;63735;-72
2024/03/28 06:58:08;;;;;;;11.80;7.20;;;;;;;8.65;58.55;99833.14;105927;1254;62217;-70
2024/03/28 07:00:34;;;;;;;13.50;8.00;;;;;;;8.70;58.39;99834.64;105990;1254;62146;-69
2024/03/28 07:03:01;;;;;;;15.00;8.00;;;;;;;8.74;58.15;99836.25;105818;1257;67286;-70
2024/03/28 07:05:28;;;;;;;16.40;9.40;;;;;;;8.78;58.19;99837.32;106095;1251;62603;-70
2024/03/28 07:07:55;;;;;;;16.30;9.20;;;;;;;8.83;57.95;99837.84;106062;1257;65999;-70
2024/03/28 07:10:22;;;;;;;16.20;7.30;;;;;;;8.87;57.69;99836.61;105868;1257;62154;-70
2024/03/28 07:12:49;;;;;;;11.30;6.90;;;;;;;8.91;57.54;99831.50;105842;1251;61959;-70
2024/03/28 07:15:16;;;;;;;13.30;6.80;;;;;;;8.95;57.43;99831.55;105926;1251;66836;-70
2024/03/28 07:17:43;;;;;;;12.40;6.40;;;;;;;8.99;57.45;99827.61;106008;1254;62108;-71
2024/03/28 07:20:10;;;;;;;11.80;6.50;;;;;;;9.02;57.50;99824.16;106053;1257;63693;-73
2024/03/28 07:22:37;;;;;;;7.50;5.30;;;;;;;9.02;57.55;99821.64;106104;1251;62140;-70
2024/03/28 07:25:04;;;;;;;9.20;5.60;;;;;;;9.05;57.58;99819.32;106049;1251;62153;-70
2024/03/28 07:27:32;;;;;;;9.70;5.80;;;;;;;9.09;57.53;99821.67;106079;1256;68659;-71
2024/03/28 07:29:58;;;;;;;10.10;5.80;;;;;;;9.13;57.32;99820.07;106096;1254;62629;-70
2024/03/28 07:32:25;;;;;;;8.10;5.90;;;;;;;9.18;57.16;99812.97;105880;1257;72673;-71
2024/03/28 07:34:52;;;;;;;11.30;5.50;;;;;;;9.22;56.82;99814.09;106262;1251;62049;-71
2024/03/28 07:37:19;;;;;;;5.90;4.40;;;;;;;9.26;56.89;99813.57;106081;1251;62044;-70
2024/03/28 07:39:45;;;;;;;9.60;4.60;;;;;;;9.31;56.90;99805.61;105975;1256;68288;-72
2024/03/28 07:42:12;;;;;;;7.20;4.00;;;;;;;9.36;56.61;99800.59;105782;1254;62041;-71
2024/03/28 07:44:39;;;;;;;10.30;5.00;;;;;;;9.42;56.32;99798.15;106041;1253;65939;-72
2024/03/28 07:47:06;;;;;;;7.10;4.80;;;;;;;9.49;56.26;99794.09;106017;1254;62162;-72
2024/03/28 07:49:33;;;;;;;10.40;5.70;;;;;;;9.55;56.16;99789.33;106071;1251;62031;-71
2024/03/28 07:52:01;;;;;;;15.50;5.80;;;;;;;9.62;55.88;99784.67;106078;1251;68783;-71
2024/03/28 07:54:30;;;;;;;8.90;5.00;;;;;;;9.69;55.50;99774.91;106211;1256;62079;-72
2024/03/28 07:57:00;;;;;;;8.40;4.20;;;;;;;9.77;55.04;99765.83;106087;1251;65784;-71
2024/03/28 07:59:27;;;;;;;6.50;3.90;;;;;;;9.85;54.90;99767.45;106041;1251;62023;-72
2024/03/28 08:01:54;;;;;;;6.70;4.30;;;;;;;9.91;54.61;99771.45;106482;1251;62161;-72
2024/03/28 08:04:22;;;;;;;7.70;4.80;;;;;;;9.98;54.12;99767.00;106105;1256;68690;-71
2024/03/28 08:06:49;;;;;;;9.10;5.00;;;;;;;10.04;53.73;99760.89;105922;1254;62136;-71
2024/03/28 08:09:15;;;;;;;8.60;4.80;;;;;;;10.11;53.51;99756.36;105961;1251;64708;-70
2024/03/28 08:11:43;;;;;;;7.60;4.30;;;;;;;10.17;53.25;99755.11;106105;1251;61941;-70
2024/03/28 08:14:11;;;;;;;10.40;4.60;;;;;;;10.26;53.16;99753.15;106365;1251;62072;-71
2024/03/28 08:16:38;;;;;;;8.20;4.60;;;;;;;10.36;52.71;99751.18;105736;1255;67682;-73
2024/03/28 08:19:06;;;;;;;8.70;5.20;;;;;;;10.47;52.21;99749.56;105880;1251;61983;-72
2024/03/28 08:21:33;;;;;;;12.40;4.90;;;;;;;10.57;52.23;99745.63;105782;1252;64427;-72
2024/03/28 08:24:00;;;;;;;8.80;4.50;;;;;;;10.65;51.63;99739.77;106091;1256;62174;-71
2024/03/28 08:26:27;;;;;;;8.30;4.30;;;;;;;10.73;51.28;99744.02;106018;1251;62156;-75
2024/03/28 08:28:54;;;;;;;9.20;4.90;;;;;;;10.80;51.16;99737.06;105869;1251;66506;-71
2024/03/28 08:31:21;;;;;;;13.10;6.30;;;;;;;10.88;51.15;99740.16;105900;1255;62063;-71
2024/03/28 08:33:47;;;;;;;15.50;7.20;;;;;;;10.98;51.29;99739.65;105964;1251;65836;-74
2024/03/28 08:36:15;;;;;;;15.50;8.80;;;;;;;11.07;51.28;99736.17;106405;1251;62094;-73
2024/03/28 08:38:42;;;;;;;21.50;10.50;;;;;;;11.15;51.16;99736.63;105856;1254;62080;-72
2024/03/28 08:41:09;;;;;;;23.80;13.00;;;;;;;11.20;50.76;99733.73;106719;1251;68593;-69
2024/03/28 08:43:36;;;;;;;22.00;12.30;;;;;;;11.24;50.72;99732.90;105573;1261;61928;-72
2024/03/28 08:46:03;;;;;;;27.30;12.80;;;;;;;11.26;50.66;99730.38;106705;1251;65662;-72
2024/03/28 08:48:31;;;;;;;22.20;10.20;;;;;;;11.29;50.84;99728.65;106180;1251;61939;-72
2024/03/28 08:50:59;;;;;;;23.60;9.50;;;;;;;11.34;50.95;99731.04;105939;1251;62228;-72
2024/03/28 08:53:29;;;;;;;20.30;10.00;;;;;;;11.38;50.81;99733.29;106181;1256;68659;-71
2024/03/28 08:55:58;;;;;;;14.40;8.50;;;;;;;11.41;50.91;99740.44;107152;1254;62076;-72
2024/03/28 08:58:29;;;;;;;10.30;5.90;;;;;;;11.42;51.13;99740.69;106333;1251;66917;-70
2024/03/28 09:01:01;;;;;;;10.00;5.00;;;;;;;11.44;51.20;99743.13;106722;1257;62073;-71
2024/03/28 09:03:36;;;;;;;6.40;3.90;;;;;;;11.47;51.44;99747.23;106685;1251;62821;-73
2024/03/28 09:06:09;;;;;;;7.30;3.70;;;;;;;11.51;51.43;99749.58;106592;1253;67485;-71
2024/03/28 09:08:40;;;;;;;9.00;3.80;;;;;;;11.52;51.35;99750.18;106536;1255;62006;-72
2024/03/28 09:11:11;;;;;;;6.10;3.60;;;;;;;11.53;51.41;99744.96;105987;1251;65757;-70
2024/03/28 09:13:41;;;;;;;9.30;3.40;;;;;;;11.55;51.46;99745.48;106521;1251;62159;-71
2024/03/28 09:16:08;;;;;;;5.50;3.60;;;;;;;11.57;51.35;99749.13;106310;1251;62025;-73
2024/03/28 09:18:35;;;;;;;6.20;3.70;;;;;;;11.59;51.41;99745.30;106072;1257;68607;-72
2024/03/28 09:21:08;;;;;;;6.50;4.50;;;;;;;11.61;51.32;99734.85;106294;1256;60028;-70
2024/03/28 09:23:35;;;;;;;8.30;5.20;;;;;;;11.65;51.40;99735.16;106321;1251;64801;-71
2024/03/28 09:26:02;;;;;;;7.60;4.00;;;;;;;11.71;51.29;99732.69;105826;1254;62152;-72
2024/03/28 09:28:30;;;;;;;5.60;3.70;;;;;;;11.78;50.77;99734.83;105886;1252;62140;-72
2024/03/28 09:30:59;;;;;;;7.20;4.00;;;;;;;11.83;50.76;99731.53;106221;1251;67182;-73
2024/03/28 09:33:27;;;;;;;12.50;4.40;;;;;;;11.89;50.67;99723.71;106348;1251;62017;-71
2024/03/28 09:35:54;;;;;;;5.60;3.60;;;;;;;11.98;50.79;99721.10;105913;1251;65771;-71
2024/03/28 09:38:22;;;;;;;11.80;5.10;;;;;;;12.07;50.50;99713.17;106684;1252;62142;-69
2024/03/28 09:40:52;;;;;;;7.80;4.80;;;;;;;12.15;50.38;99713.16;106207;1257;61971;-72
2024/03/28 09:43:18;;;;;;;6.40;3.90;;;;;;;12.22;50.01;99712.15;106684;1256;76147;-72
2024/03/28 09:45:45;;;;;;;10.10;4.70;;;;;;;12.26;49.81;99711.73;106160;1251;61948;-71
2024/03/28 09:48:16;;;;;;;9.10;4.90;;;;;;;12.29;49.82;99707.87;105982;1251;63959;-76
2024/03/28 09:50:43;;;;;;;10.30;4.20;;;;;;;12.31;49.58;99702.36;106499;1252;62049;-72
2024/03/28 09:53:10;;;;;;;9.50;4.80;;;;;;;12.32;49.32;99699.29;106214;1251;62175;-72
2024/03/28 09:55:37;;;;;;;7.20;4.50;;;;;;;12.32;49.44;99694.45;106100;1256;69286;-73
2024/03/28 09:58:04;;;;;;;6.90;5.10;;;;;;;12.35;49.65;99695.81;106428;1256;61954;-72
2024/03/28 10:00:32;;;;;;;7.30;4.90;;;;;;;12.41;49.54;99691.70;106162;1251;74062;-70
2024/03/28 10:03:02;;;;;;;10.50;6.80;;;;;;;12.46;49.42;99685.18;105831;1253;62196;-69
2024/03/28 10:05:29;;;;;;;8.10;5.10;;;;;;;12.51;49.43;99683.29;106285;1256;61960;-71
2024/03/28 10:07:56;;;;;;;10.50;4.50;;;;;;;12.57;49.41;99676.86;105895;1251;68645;-73
2024/03/28 10:10:22;;;;;;;8.60;5.40;;;;;;;12.64;48.94;99677.27;106661;1251;66359;-73
2024/03/28 10:12:55;;;;;;;7.80;4.20;;;;;;;12.69;49.22;99677.96;106510;1253;65561;-70
2024/03/28 10:15:22;;;;;;;10.30;4.20;;;;;;;12.75;49.04;99672.12;106260;1254;62078;-74
2024/03/28 10:18:07;;;;;;;6.00;3.90;;;;;;;12.79;48.91;99668.20;106770;1251;62027;-74
2024/03/28 10:20:36;;;;;;;6.60;4.40;;;;;;;12.81;48.78;99665.08;106507;1253;238581;-72
2024/03/28 10:23:05;;;;;;;11.60;5.00;;;;;;;12.85;48.78;99665.61;106193;1251;62126;-72
2024/03/28 10:25:33;;;;;;;10.90;6.10;;;;;;;12.91;48.94;99668.86;106388;1251;65695;-76
2024/03/28 10:28:00;;;;;;;10.00;6.20;;;;;;;13.01;48.73;99674.11;106096;1252;62052;-77
2024/03/28 10:30:27;;;;;;;15.00;8.30;;;;;;;13.09;48.69;99669.15;106527;1256;61979;-77
2024/03/28 10:33:07;;;;;;;15.00;8.50;;;;;;;13.19;48.38;99668.06;106214;1251;68524;-76
2024/03/28 10:35:41;;;;;;;17.20;9.20;;;;;;;13.26;48.15;99664.52;105947;1251;62168;-77
2024/03/28 10:38:12;;;;;;;19.10;9.90;;;;;;;13.32;48.01;99668.44;105972;1251;65886;-79
2024/03/28 10:40:43;;;;;;;11.40;7.20;;;;;;;13.37;48.17;99666.89;106419;1256;62068;-79
2024/03/28 10:43:09;;;;;;;12.60;7.40;;;;;;;13.42;48.32;99662.71;106356;1259;61954;-75
2024/03/28 10:45:41;;;;;;;9.40;5.90;;;;;;;13.47;48.19;99660.05;106474;1256;68884;-79
2024/03/28 10:48:29;;;;;;;9.40;5.70;;;;;;;13.50;48.13;99663.45;106482;1251;67574;-78
2024/03/28 10:51:16;;;;;;;10.10;4.90;;;;;;;13.55;47.99;99664.02;106587;1251;67598;-75
2024/03/28 10:53:46;;;;;;;7.90;4.70;;;;;;;13.62;48.26;99667.67;106808;1255;62060;-74
2024/03/28 10:56:13;;;;;;;5.80;4.10;;;;;;;13.72;48.15;99668.27;106828;1251;61998;-73
2024/03/28 10:58:40;;;;;;;6.40;4.50;;;;;;;13.82;48.24;99658.70;106521;1251;69263;-76
2024/03/28 11:01:08;;;;;;;7.00;4.50;;;;;;;13.95;48.05;99655.42;106277;1254;62073;-80
2024/03/28 11:03:41;;;;;;;9.40;4.90;;;;;;;14.04;47.59;99644.58;106537;1251;65891;-77
2024/03/28 11:06:07;;;;;;;6.30;3.80;;;;;;;14.11;47.93;99640.27;106205;1251;62136;-79
2024/03/28 11:08:35;;;;;;;10.10;5.00;;;;;;;14.18;47.80;99630.13;106393;1256;61986;-73
2024/03/28 11:11:02;;;;;;;7.10;4.40;;;;;;;14.29;47.85;99619.36;105830;1251;67672;-77
2024/03/28 11:13:29;;;;;;;8.40;4.70;;;;;;;14.44;47.60;99614.38;106132;1253;62126;-74
2024/03/28 11:16:15;;;;;;;12.00;5.60;;;;;;;14.57;47.38;99608.02;106218;1258;65980;-74
2024/03/28 11:18:45;;;;;;;9.20;5.00;;;;;;;14.73;47.17;99602.80;106308;1257;62146;-72
2024/03/28 11:21:12;;;;;;;9.70;4.90;;;;;;;14.93;47.38;99597.91;106566;1256;62057;-80
2024/03/28 11:23:46;;;;;;;9.90;4.60;;;;;;;15.15;46.77;99592.45;106432;1254;68305;-78
2024/03/28 11:26:19;;;;;;;14.90;7.30;;;;;;;15.36;46.50;99588.90;106801;1252;62069;-78
2024/03/28 11:28:46;;;;;;;16.30;9.10;;;;;;;15.60;46.33;99581.94;106663;1254;65394;-77
2024/03/28 11:31:23;;;;;;;11.70;6.20;;;;;;;15.87;46.16;99584.84;106851;1254;62141;-83